Time;durP1;ratioP1;P1;durP2;ratioP2;P2;SDS_P1;SDS_P2;PMS_P1;PMS_P2;Temp;Humidity;BMP_temperature;BMP_pressure;BME280_temperature;BME280_humidity;BME280_pressure;Samples;Min_cycle;Max_cycle;Signal;HPM_P1;HPM_P2
2021/12/30 00:00:51;;;;;;;3.25;1.88;;;;;;;10.69;89.44;96435.28;4947377;29;20047;-81
2021/12/30 00:03:19;;;;;;;1.70;1.60;;;;;;;10.69;89.47;96430.91;4945956;29;20059;-78
2021/12/30 00:05:47;;;;;;;1.50;1.40;;;;;;;10.71;89.47;96430.69;4945276;29;20070;-80
2021/12/30 00:08:15;;;;;;;3.10;1.90;;;;;;;10.74;89.52;96437.38;4945574;29;20047;-80
2021/12/30 00:10:43;;;;;;;3.03;1.50;;;;;;;10.76;89.22;96438.78;4945475;29;20403;-79
2021/12/30 00:13:12;;;;;;;2.58;1.08;;;;;;;10.77;88.94;96434.38;4945170;29;20052;-79
2021/12/30 00:15:40;;;;;;;1.58;1.48;;;;;;;10.79;88.91;96432.38;4944897;29;20047;-79
2021/12/30 00:18:09;;;;;;;1.35;1.30;;;;;;;10.81;89.03;96438.22;4944238;29;20047;-79
2021/12/30 00:20:37;;;;;;;2.65;1.45;;;;;;;10.82;89.04;96445.06;4944765;29;20064;-79
2021/12/30 00:23:07;;;;;;;3.25;1.70;;;;;;;10.84;88.99;96437.84;4944842;29;20059;-82
2021/12/30 00:25:40;;;;;;;1.40;1.30;;;;;;;10.83;88.99;96447.47;4945684;29;20058;-80
2021/12/30 00:28:09;;;;;;;1.92;1.55;;;;;;;10.83;88.96;96459.72;4944521;29;20696;-79
2021/12/30 00:30:38;;;;;;;1.90;1.70;;;;;;;10.84;88.98;96443.88;4947198;29;20063;-81
2021/12/30 00:33:07;;;;;;;1.17;1.17;;;;;;;10.88;89.09;96452.94;4946669;29;20056;-80
2021/12/30 00:35:35;;;;;;;1.50;1.40;;;;;;;10.92;89.11;96461.22;4946762;29;20495;-80
2021/12/30 00:38:03;;;;;;;1.83;1.73;;;;;;;10.93;88.97;96465.41;4946335;29;20074;-82
2021/12/30 00:40:31;;;;;;;1.52;1.42;;;;;;;10.94;88.83;96467.06;4946953;29;20051;-79
2021/12/30 00:43:00;;;;;;;2.60;1.40;;;;;;;10.94;88.93;96482.72;4947096;29;20061;-80
2021/12/30 00:45:29;;;;;;;2.30;1.20;;;;;;;10.94;88.96;96490.53;4946095;29;20051;-80
2021/12/30 00:47:58;;;;;;;2.08;0.85;;;;;;;10.93;89.20;96489.75;4946160;29;20111;-83
2021/12/30 00:50:28;;;;;;;0.95;0.93;;;;;;;10.95;89.21;96501.78;4945303;29;20058;-79
2021/12/30 00:52:57;;;;;;;0.80;0.80;;;;;;;10.96;89.10;96498.19;4945079;29;20055;-79
2021/12/30 00:55:25;;;;;;;1.30;0.93;;;;;;;10.96;89.24;96499.00;4943871;29;20044;-80
2021/12/30 00:57:52;;;;;;;0.52;0.52;;;;;;;10.96;89.42;96503.41;4942666;29;20047;-78
2021/12/30 01:00:21;;;;;;;1.40;0.80;;;;;;;10.96;89.51;96508.63;4944753;29;20068;-78
2021/12/30 01:02:49;;;;;;;2.58;1.23;;;;;;;10.95;89.43;96505.19;4942321;29;20055;-79
2021/12/30 01:05:18;;;;;;;1.98;1.08;;;;;;;10.97;89.34;96516.25;4942299;29;20107;-79
2021/12/30 01:07:45;;;;;;;2.08;0.90;;;;;;;10.98;89.49;96520.50;4942008;29;20051;-82
2021/12/30 01:10:17;;;;;;;1.35;0.60;;;;;;;11.00;89.41;96521.13;4942078;29;20056;-76
2021/12/30 01:12:45;;;;;;;4.07;1.17;;;;;;;11.02;89.37;96513.91;4942051;29;20043;-82
2021/12/30 01:15:17;;;;;;;1.80;1.05;;;;;;;11.04;89.32;96516.31;4945514;29;20285;-80
2021/12/30 01:17:50;;;;;;;3.40;1.20;;;;;;;11.06;89.03;96530.00;4944670;29;20043;-80
2021/12/30 01:20:21;;;;;;;0.93;0.80;;;;;;;11.07;88.97;96539.47;4943921;29;20059;-77
2021/12/30 01:22:51;;;;;;;1.02;0.93;;;;;;;11.07;89.08;96537.66;4945169;29;20063;-80
2021/12/30 01:25:19;;;;;;;0.93;0.80;;;;;;;11.09;88.94;96530.44;4946405;29;20059;-80
2021/12/30 01:27:47;;;;;;;1.08;0.80;;;;;;;11.11;88.98;96541.50;4945842;29;20075;-79
2021/12/30 01:30:18;;;;;;;1.58;0.98;;;;;;;11.14;88.79;96554.16;4946833;29;20055;-79
2021/12/30 01:32:45;;;;;;;1.23;0.88;;;;;;;11.17;88.45;96546.97;4946684;29;20055;-79
2021/12/30 01:35:22;;;;;;;2.05;1.05;;;;;;;11.17;88.53;96553.00;4947493;29;20051;-79
2021/12/30 01:37:52;;;;;;;1.60;0.90;;;;;;;11.19;88.16;96555.41;4946416;29;20064;-81
2021/12/30 01:40:20;;;;;;;2.10;1.00;;;;;;;11.19;88.24;96550.19;4946104;29;20051;-80
2021/12/30 01:42:49;;;;;;;1.83;1.15;;;;;;;11.19;88.13;96552.81;4947586;29;20437;-79
2021/12/30 01:45:17;;;;;;;2.13;1.17;;;;;;;11.18;88.04;96565.06;4947719;29;20047;-79
2021/12/30 01:47:50;;;;;;;1.10;0.95;;;;;;;11.20;88.03;96559.66;4949423;29;20410;-81
2021/12/30 01:50:17;;;;;;;;;;;;;;;11.24;88.11;96581.78;4949542;29;20052;-80
2021/12/30 01:52:45;;;;;;;2.25;0.95;;;;;;;11.21;87.84;96579.53;4947976;29;19929;-79
2021/12/30 01:55:17;;;;;;;1.17;1.00;;;;;;;11.22;88.07;96584.59;4947964;29;20438;-79
2021/12/30 01:57:44;;;;;;;1.70;1.30;;;;;;;11.22;87.67;96586.41;4948133;29;20058;-80
2021/12/30 02:00:16;;;;;;;1.10;0.90;;;;;;;11.21;87.70;96592.59;4948292;29;20063;-80
2021/12/30 02:02:43;;;;;;;1.10;0.93;;;;;;;11.20;87.62;96596.22;4946590;29;20329;-79
2021/12/30 02:05:13;;;;;;;2.20;0.73;;;;;;;11.20;87.65;96602.25;4945391;29;20131;-78
2021/12/30 02:07:40;;;;;;;1.08;0.85;;;;;;;11.21;87.50;96616.91;4945070;29;20051;-77
2021/12/30 02:10:09;;;;;;;1.80;0.70;;;;;;;11.21;87.08;96618.72;4945066;29;20064;-78
2021/12/30 02:12:39;;;;;;;2.63;0.82;;;;;;;11.19;87.25;96628.53;4945088;29;20059;-77
2021/12/30 02:15:11;;;;;;;4.63;1.45;;;;;;;11.17;87.11;96630.50;4945049;29;20056;-81
2021/12/30 02:17:40;;;;;;;2.83;1.00;;;;;;;11.13;87.09;96630.88;4944498;29;20528;-79
2021/12/30 02:20:12;;;;;;;1.75;1.20;;;;;;;11.12;87.25;96634.47;4943680;29;20422;-77
2021/12/30 02:22:40;;;;;;;1.98;0.80;;;;;;;11.12;87.18;96629.25;4944324;29;20048;-78
2021/12/30 02:25:08;;;;;;;3.28;0.82;;;;;;;11.11;87.15;96648.53;4945078;29;20056;-80
2021/12/30 02:27:35;;;;;;;1.60;1.00;;;;;;;11.12;86.99;96641.50;4943525;29;20051;-76
2021/12/30 02:30:04;;;;;;;3.78;0.82;;;;;;;11.13;87.00;96646.56;4944040;29;20516;-79
2021/12/30 02:32:32;;;;;;;1.30;0.73;;;;;;;11.14;86.87;96649.97;4944607;29;20056;-82
2021/12/30 02:34:59;;;;;;;2.10;1.05;;;;;;;11.16;86.88;96655.00;4947553;29;20055;-82
2021/12/30 02:37:28;;;;;;;3.03;0.90;;;;;;;11.17;86.56;96661.84;4947776;29;20047;-82
2021/12/30 02:39:55;;;;;;;3.13;0.95;;;;;;;11.18;86.66;96666.09;4946861;29;20060;-78
2021/12/30 02:42:25;;;;;;;1.75;0.77;;;;;;;11.17;86.81;96667.88;4945563;29;20063;-79
2021/12/30 02:44:53;;;;;;;2.15;0.95;;;;;;;11.19;86.75;96672.91;4946088;29;20054;-79
2021/12/30 02:47:21;;;;;;;3.28;0.70;;;;;;;11.19;86.51;96671.09;4944853;29;20078;-78
2021/12/30 02:49:48;;;;;;;4.47;1.02;;;;;;;11.20;86.65;96680.56;4945192;29;20578;-79
2021/12/30 02:52:16;;;;;;;3.67;1.00;;;;;;;11.21;86.69;96683.97;4944759;29;20494;-77
2021/12/30 02:54:45;;;;;;;3.45;1.10;;;;;;;11.21;86.80;96691.81;4944407;29;20055;-79
2021/12/30 02:57:12;;;;;;;3.42;1.08;;;;;;;11.20;86.67;96687.59;4944610;29;20078;-81
2021/12/30 02:59:40;;;;;;;2.05;1.10;;;;;;;11.20;86.58;96695.44;4942951;29;20062;-77
2021/12/30 03:02:07;;;;;;;2.15;0.77;;;;;;;11.21;86.63;96699.66;4943387;29;20058;-77
2021/12/30 03:04:36;;;;;;;2.17;1.20;;;;;;;11.22;86.58;96696.88;4943047;29;20086;-80
2021/12/30 03:07:04;;;;;;;2.95;0.80;;;;;;;11.24;86.55;96700.09;4942680;29;20055;-79
2021/12/30 03:09:33;;;;;;;2.78;1.10;;;;;;;11.25;86.49;96701.72;4942696;29;20055;-78
2021/12/30 03:12:02;;;;;;;3.53;0.80;;;;;;;11.23;86.31;96698.47;4942019;29;20056;-79
2021/12/30 03:14:29;;;;;;;0.80;0.80;;;;;;;11.25;86.36;96703.50;4941940;29;20051;-76
2021/12/30 03:16:57;;;;;;;2.28;1.45;;;;;;;11.26;86.34;96697.28;4941813;29;20052;-76
2021/12/30 03:19:24;;;;;;;2.85;0.90;;;;;;;11.25;86.23;96696.47;4941621;29;20047;-78
2021/12/30 03:21:55;;;;;;;1.65;0.63;;;;;;;11.25;86.13;96708.75;4941022;29;20051;-78
2021/12/30 03:24:23;;;;;;;1.83;0.70;;;;;;;11.24;86.16;96715.78;4940877;29;20048;-79
2021/12/30 03:26:50;;;;;;;1.55;0.88;;;;;;;11.23;86.03;96708.91;4940428;29;20059;-77
2021/12/30 03:29:19;;;;;;;3.67;1.40;;;;;;;11.23;86.07;96719.34;4940738;29;20541;-77
2021/12/30 03:31:47;;;;;;;1.92;0.80;;;;;;;11.23;86.12;96711.53;4940425;29;20473;-78
2021/12/30 03:34:15;;;;;;;4.32;0.93;;;;;;;11.23;86.03;96713.34;4940620;29;20056;-77
2021/12/30 03:36:42;;;;;;;2.75;1.10;;;;;;;11.23;86.06;96708.13;4939288;29;20059;-77
2021/12/30 03:39:11;;;;;;;3.65;1.40;;;;;;;11.21;85.95;96710.91;4940126;29;20063;-78
2021/12/30 03:41:38;;;;;;;3.00;1.08;;;;;;;11.22;85.95;96717.75;4944636;29;20502;-79
2021/12/30 03:44:06;;;;;;;0.70;0.70;;;;;;;11.24;85.83;96730.59;4947236;29;20055;-81
2021/12/30 03:46:35;;;;;;;4.65;1.05;;;;;;;11.23;85.81;96735.03;4946337;29;20518;-80
2021/12/30 03:49:05;;;;;;;2.78;1.23;;;;;;;11.25;85.87;96740.06;4946966;29;20490;-80
2021/12/30 03:51:38;;;;;;;1.20;0.73;;;;;;;11.25;85.75;96740.06;4946786;29;20413;-80
2021/12/30 03:54:07;;;;;;;;;;;;;;;11.29;85.84;96743.94;4946124;29;20050;-80
2021/12/30 03:56:35;;;;;;;1.75;0.90;;;;;;;11.27;85.48;96757.19;4944290;29;19972;-79
2021/12/30 03:59:04;;;;;;;2.08;1.00;;;;;;;11.27;85.64;96758.97;4944867;29;20055;-81
2021/12/30 04:01:32;;;;;;;1.80;0.80;;;;;;;11.26;85.96;96770.41;4945013;29;20051;-79
2021/12/30 04:04:01;;;;;;;2.17;1.27;;;;;;;11.27;85.71;96766.81;4947010;29;20047;-81
2021/12/30 04:06:29;;;;;;;1.40;0.63;;;;;;;11.28;85.85;96778.88;4946589;29;20052;-81
2021/12/30 04:08:57;;;;;;;1.88;1.02;;;;;;;11.27;85.90;96788.50;4946645;29;20047;-79
2021/12/30 04:11:26;;;;;;;0.70;0.70;;;;;;;11.28;85.75;96786.69;4947645;29;20060;-78
2021/12/30 04:13:55;;;;;;;5.03;1.20;;;;;;;11.29;85.62;96790.94;4946346;29;20055;-81
2021/12/30 04:16:22;;;;;;;2.90;0.70;;;;;;;11.29;85.73;96794.38;4944065;29;20043;-80
2021/12/30 04:18:50;;;;;;;1.05;0.70;;;;;;;11.30;85.60;96792.56;4943776;29;20059;-83
2021/12/30 04:21:21;;;;;;;0.90;0.60;;;;;;;11.30;85.58;96795.16;4944359;29;20056;-80
2021/12/30 04:23:48;;;;;;;2.55;0.65;;;;;;;11.30;85.63;96803.00;4944420;29;20055;-83
2021/12/30 04:26:17;;;;;;;1.92;0.77;;;;;;;11.29;85.54;96801.41;4943726;29;20113;-81
2021/12/30 04:28:45;;;;;;;1.17;0.60;;;;;;;11.28;85.57;96799.75;4943631;29;20047;-80
2021/12/30 04:31:14;;;;;;;1.65;0.95;;;;;;;11.29;85.45;96806.63;4943459;29;20434;-79
2021/12/30 04:33:42;;;;;;;3.03;0.70;;;;;;;11.28;85.76;96800.59;4942925;29;20053;-79
2021/12/30 04:36:10;;;;;;;1.52;0.82;;;;;;;11.29;85.43;96801.41;4943769;29;20051;-81
2021/12/30 04:38:39;;;;;;;1.90;0.70;;;;;;;11.29;85.49;96811.84;4944262;29;20052;-82
2021/12/30 04:41:07;;;;;;;3.15;0.88;;;;;;;11.29;85.44;96802.19;4944202;29;20048;-81
2021/12/30 04:43:35;;;;;;;1.92;0.40;;;;;;;11.29;85.43;96807.41;4944230;29;20063;-81
2021/12/30 04:46:03;;;;;;;1.33;0.60;;;;;;;11.29;85.33;96812.66;4943445;29;20048;-80
2021/12/30 04:48:31;;;;;;;0.85;0.50;;;;;;;11.29;85.31;96807.41;4950120;29;20048;-82
2021/12/30 04:50:58;;;;;;;1.13;0.47;;;;;;;11.30;85.31;96819.50;4950902;29;20508;-79
2021/12/30 04:53:26;;;;;;;5.90;0.70;;;;;;;11.32;85.29;96816.69;4950782;29;20062;-79
2021/12/30 04:55:55;;;;;;;2.47;0.60;;;;;;;11.31;85.29;96826.34;4950439;29;20494;-78
2021/12/30 04:58:22;;;;;;;1.30;0.43;;;;;;;11.32;85.26;96827.13;4950392;29;20056;-79
2021/12/30 05:00:50;;;;;;;1.40;0.70;;;;;;;11.32;85.44;96837.59;4950675;29;20059;-80
2021/12/30 05:03:20;;;;;;;2.38;0.45;;;;;;;11.32;85.49;96837.59;4950286;29;20056;-78
2021/12/30 05:05:49;;;;;;;0.77;0.35;;;;;;;11.32;85.53;96837.59;4949611;29;20497;-79
2021/12/30 05:08:20;;;;;;;0.82;0.40;;;;;;;11.32;85.27;96846.22;4948831;29;20071;-80
2021/12/30 05:10:49;;;;;;;0.60;0.38;;;;;;;11.32;85.39;96842.81;4950331;29;20062;-79
2021/12/30 05:13:18;;;;;;;1.70;0.40;;;;;;;11.33;85.59;96847.06;4950284;29;20074;-78
2021/12/30 05:15:47;;;;;;;0.52;0.35;;;;;;;11.32;85.78;96848.03;4950116;29;20125;-83
2021/12/30 05:18:16;;;;;;;1.30;0.30;;;;;;;11.30;85.97;96847.41;4950018;29;20115;-79
2021/12/30 05:20:44;;;;;;;0.57;0.40;;;;;;;11.29;85.81;96848.41;4950151;29;20047;-80
2021/12/30 05:23:11;;;;;;;1.65;0.50;;;;;;;11.30;86.14;96850.00;4950110;29;20430;-79
2021/12/30 05:25:39;;;;;;;0.82;0.63;;;;;;;11.30;86.39;96857.84;4949623;29;20051;-80
2021/12/30 05:28:06;;;;;;;1.95;0.50;;;;;;;11.31;86.31;96856.88;4949659;29;20058;-80
2021/12/30 05:30:36;;;;;;;1.10;0.50;;;;;;;11.31;86.70;96873.34;4950233;29;20044;-79
2021/12/30 05:33:05;;;;;;;0.50;0.50;;;;;;;11.31;86.83;96868.13;4950313;29;20071;-80
2021/12/30 05:35:33;;;;;;;1.67;0.40;;;;;;;11.33;86.82;96881.81;4950083;29;20066;-80
2021/12/30 05:38:02;;;;;;;1.92;0.98;;;;;;;11.34;86.91;96880.00;4949152;29;20047;-81
2021/12/30 05:40:30;;;;;;;1.55;0.47;;;;;;;11.34;87.07;96880.81;4949270;29;20047;-81
2021/12/30 05:42:57;;;;;;;1.13;0.60;;;;;;;11.33;86.89;96884.41;4949794;29;20059;-83
2021/12/30 05:45:26;;;;;;;1.27;0.43;;;;;;;11.33;86.84;96886.22;4951047;29;20055;-81
2021/12/30 05:47:56;;;;;;;1.77;0.63;;;;;;;11.34;86.95;96877.38;4950354;29;20135;-81
2021/12/30 05:50:26;;;;;;;0.57;0.57;;;;;;;11.33;87.06;96881.00;4950411;29;20062;-83
2021/12/30 05:52:54;;;;;;;0.73;0.50;;;;;;;11.34;87.05;96877.38;4950109;29;20047;-79
2021/12/30 05:55:22;;;;;;;1.75;0.50;;;;;;;11.34;87.36;96878.19;4949268;29;20056;-80
2021/12/30 05:57:52;;;;;;;0.40;0.32;;;;;;;11.34;87.10;96883.41;4947968;29;20058;-81
2021/12/30 06:00:22;;;;;;;1.30;0.93;;;;;;;11.36;87.47;96882.44;4945845;29;20051;-80
2021/12/30 06:02:50;;;;;;;1.17;0.93;;;;;;;11.37;87.24;96884.88;4945883;29;20055;-80
2021/12/30 06:05:20;;;;;;;0.80;0.70;;;;;;;11.37;87.20;96884.06;4947011;29;20087;-81
2021/12/30 06:07:48;;;;;;;2.90;0.57;;;;;;;11.37;86.99;96892.72;4946431;29;20055;-80
2021/12/30 06:10:16;;;;;;;0.40;0.40;;;;;;;11.37;87.26;96895.34;4946457;29;20051;-79
2021/12/30 06:12:45;;;;;;;1.73;0.52;;;;;;;11.38;87.39;96899.56;4946569;29;20047;-79
2021/12/30 06:15:14;;;;;;;0.85;0.50;;;;;;;11.36;87.22;96885.84;4946624;29;20059;-81
2021/12/30 06:17:42;;;;;;;0.50;0.50;;;;;;;11.37;87.49;96892.72;4946553;29;20103;-79
2021/12/30 06:20:13;;;;;;;2.05;0.63;;;;;;;11.38;87.75;96904.78;4946798;29;20050;-80
2021/12/30 06:22:43;;;;;;;0.88;0.55;;;;;;;11.38;87.65;96896.13;4946008;29;20078;-81
2021/12/30 06:25:12;;;;;;;1.17;0.43;;;;;;;11.39;87.59;96901.19;4946470;29;20059;-81
2021/12/30 06:27:40;;;;;;;0.20;0.20;;;;;;;11.40;87.79;96894.97;4947353;29;20056;-82
2021/12/30 06:30:09;;;;;;;0.13;0.13;;;;;;;11.40;87.94;96905.41;4947466;29;20052;-81
2021/12/30 06:32:36;;;;;;;0.30;0.25;;;;;;;11.41;87.98;96899.19;4946434;29;20063;-79
2021/12/30 06:35:07;;;;;;;2.05;0.30;;;;;;;11.41;87.96;96896.56;4946613;29;20056;-80
2021/12/30 06:37:35;;;;;;;0.10;0.10;;;;;;;11.42;88.15;96895.59;4945990;29;20056;-80
2021/12/30 06:40:07;;;;;;;1.25;0.20;;;;;;;11.44;88.38;96893.63;4946282;29;20044;-79
2021/12/30 06:42:34;;;;;;;0.43;0.17;;;;;;;11.43;88.05;96891.19;4945923;29;20051;-81
2021/12/30 06:45:03;;;;;;;0.43;0.20;;;;;;;11.45;88.15;96894.41;4946425;29;20052;-80
2021/12/30 06:47:31;;;;;;;0.10;0.10;;;;;;;11.46;88.03;96885.59;4946434;29;20060;-78
2021/12/30 06:50:01;;;;;;;0.43;0.20;;;;;;;11.46;87.78;96893.44;4945371;29;20058;-78
2021/12/30 06:52:30;;;;;;;0.25;0.20;;;;;;;11.49;87.79;96895.69;4945841;29;20083;-79
2021/12/30 06:54:57;;;;;;;0.00;0.00;;;;;;;11.50;87.85;96897.28;4944923;29;20051;-78
2021/12/30 06:57:28;;;;;;;0.40;0.25;;;;;;;11.54;87.98;96909.84;4944738;29;20056;-78
2021/12/30 06:59:56;;;;;;;0.17;0.17;;;;;;;11.57;87.99;96903.44;4944172;29;20138;-78
2021/12/30 07:02:23;;;;;;;0.20;0.20;;;;;;;11.60;87.83;96912.72;4944787;29;20541;-77
2021/12/30 07:04:51;;;;;;;1.02;0.15;;;;;;;11.62;87.21;96902.91;4944411;29;20063;-80
2021/12/30 07:07:19;;;;;;;0.32;0.20;;;;;;;11.64;87.42;96911.38;4945037;29;20071;-79
2021/12/30 07:09:47;;;;;;;0.10;0.10;;;;;;;11.65;87.51;96910.38;4944279;29;20063;-79
2021/12/30 07:12:15;;;;;;;1.70;0.10;;;;;;;11.68;87.40;96917.84;4943732;29;20051;-79
2021/12/30 07:14:44;;;;;;;0.28;0.03;;;;;;;11.69;87.44;96929.91;4945608;29;20434;-79
2021/12/30 07:17:12;;;;;;;0.35;0.08;;;;;;;11.71;87.50;96926.13;4944894;29;20048;-80
2021/12/30 07:19:39;;;;;;;0.10;0.10;;;;;;;11.75;87.25;96931.81;4944358;29;20048;-79
2021/12/30 07:22:07;;;;;;;0.32;0.10;;;;;;;11.78;87.24;96935.88;4943622;29;20058;-78
2021/12/30 07:24:55;;;;;;;0.40;0.20;;;;;;;11.79;87.15;96940.13;4943642;29;20490;-79
2021/12/30 07:27:23;;;;;;;0.65;0.28;;;;;;;11.82;87.07;96937.94;4942610;29;20048;-82
2021/12/30 07:29:52;;;;;;;0.43;0.20;;;;;;;11.82;87.17;96943.16;4942380;29;20047;-80
2021/12/30 07:32:19;;;;;;;0.17;0.17;;;;;;;11.83;87.08;96944.81;4964472;23;20051;-80
2021/12/30 07:34:47;;;;;;;0.38;0.32;;;;;;;11.83;86.98;96954.41;4955920;29;20047;-80
2021/12/30 07:37:16;;;;;;;0.10;0.10;;;;;;;11.83;87.04;96950.03;4955045;29;20062;-80
2021/12/30 07:39:45;;;;;;;0.20;0.20;;;;;;;11.83;87.01;96955.25;4955579;28;20051;-80
2021/12/30 07:42:13;;;;;;;0.10;0.10;;;;;;;11.85;87.50;96950.66;4952844;29;20053;-80
2021/12/30 07:44:41;;;;;;;0.50;0.20;;;;;;;11.86;87.17;96960.13;4936093;29;20048;-79
2021/12/30 07:47:18;;;;;;;0.10;0.10;;;;;;;11.89;87.51;96954.53;4936038;29;20059;-80
2021/12/30 07:49:46;;;;;;;0.25;0.25;;;;;;;11.93;87.42;96970.69;4936127;29;20059;-80
2021/12/30 07:52:15;;;;;;;0.20;0.20;;;;;;;11.94;87.14;96962.66;4935987;29;20063;-80
2021/12/30 07:54:43;;;;;;;0.20;0.20;;;;;;;11.97;87.20;96976.38;4935819;29;20055;-80
2021/12/30 07:57:11;;;;;;;0.38;0.38;;;;;;;11.97;87.10;96971.16;4935519;29;20151;-80
2021/12/30 07:59:39;;;;;;;3.22;0.38;;;;;;;11.97;87.29;96971.94;4935999;29;20056;-80
2021/12/30 08:02:06;;;;;;;0.75;0.30;;;;;;;11.95;87.32;96982.56;4935487;29;20055;-80
2021/12/30 08:04:35;;;;;;;0.38;0.28;;;;;;;11.96;87.61;96986.03;4935824;29;20048;-80
2021/12/30 08:07:03;;;;;;;0.63;0.63;;;;;;;11.95;87.34;96982.56;4935256;29;20631;-80
2021/12/30 08:09:31;;;;;;;0.20;0.20;;;;;;;11.94;87.52;96980.97;4935480;29;20071;-80
2021/12/30 08:11:59;;;;;;;0.20;0.20;;;;;;;11.94;87.67;96991.44;4935880;29;20048;-80
2021/12/30 08:14:27;;;;;;;0.80;0.32;;;;;;;11.94;87.62;96983.59;4935958;29;20253;-80
2021/12/30 08:16:55;;;;;;;0.13;0.13;;;;;;;11.94;87.68;96990.63;4935338;29;20052;-80
2021/12/30 08:19:23;;;;;;;1.75;0.20;;;;;;;11.93;87.68;96991.59;4935666;29;20052;-80
2021/12/30 08:21:52;;;;;;;1.10;0.35;;;;;;;11.91;87.52;96994.38;4934958;29;20098;-80
2021/12/30 08:24:21;;;;;;;0.30;0.20;;;;;;;11.90;87.52;97000.63;4935886;29;20055;-80
2021/12/30 08:27:12;;;;;;;0.15;0.15;;;;;;;11.91;87.77;96999.63;4935383;29;20063;-80
2021/12/30 08:29:39;;;;;;;0.40;0.20;;;;;;;11.92;87.91;97006.47;4935264;29;20518;-80
2021/12/30 08:32:08;;;;;;;1.13;0.20;;;;;;;11.92;87.87;97001.25;4935146;29;20056;-80
2021/12/30 08:34:36;;;;;;;0.40;0.30;;;;;;;11.92;87.88;97013.53;4935524;29;20123;-80
2021/12/30 08:37:05;;;;;;;0.30;0.30;;;;;;;11.92;87.88;97010.91;4935291;29;20055;-80
2021/12/30 08:39:35;;;;;;;0.35;0.20;;;;;;;11.92;87.96;96998.63;4935374;29;20052;-80
2021/12/30 08:42:04;;;;;;;1.70;0.13;;;;;;;11.94;88.09;97007.13;4935642;29;20054;-80
2021/12/30 08:44:32;;;;;;;0.17;0.17;;;;;;;11.95;88.14;97016.56;4935278;29;20107;-80
2021/12/30 08:47:00;;;;;;;0.17;0.17;;;;;;;11.97;88.22;97008.56;4934738;29;20075;-80
2021/12/30 08:49:27;;;;;;;0.30;0.20;;;;;;;11.98;88.43;97004.13;4935385;29;20058;-80
2021/12/30 08:51:55;;;;;;;0.73;0.73;;;;;;;11.99;88.14;96997.91;4935012;29;20430;-80
2021/12/30 08:54:24;;;;;;;0.20;0.20;;;;;;;12.00;88.30;97008.19;4935199;29;20060;-80
2021/12/30 08:56:51;;;;;;;0.10;0.10;;;;;;;12.02;88.50;97000.16;4934917;29;20063;-80
2021/12/30 08:59:19;;;;;;;0.20;0.20;;;;;;;12.03;88.45;97010.44;4934809;29;20059;-80
2021/12/30 09:01:47;;;;;;;0.40;0.20;;;;;;;12.03;88.28;97002.59;4934742;29;20062;-80
2021/12/30 09:04:14;;;;;;;0.22;0.22;;;;;;;12.02;88.15;96998.34;4935150;29;20063;-80
2021/12/30 09:06:42;;;;;;;0.57;0.30;;;;;;;12.04;88.27;97003.41;4934566;29;20067;-80
2021/12/30 09:09:10;;;;;;;0.30;0.30;;;;;;;12.06;88.41;96996.19;4934959;29;20510;-80
2021/12/30 09:11:38;;;;;;;0.32;0.32;;;;;;;12.07;88.53;97008.25;4935395;29;20063;-80
2021/12/30 09:14:06;;;;;;;0.68;0.30;;;;;;;12.08;88.23;97013.31;4934901;29;20542;-80
2021/12/30 09:16:34;;;;;;;0.40;0.20;;;;;;;12.08;88.26;97010.72;4934540;29;20051;-80
2021/12/30 09:19:01;;;;;;;0.30;0.30;;;;;;;12.09;88.52;97014.13;4935041;29;20044;-80
2021/12/30 09:21:29;;;;;;;2.95;0.50;;;;;;;12.10;88.61;97013.16;4934957;29;20051;-80
2021/12/30 09:23:56;;;;;;;1.55;0.40;;;;;;;12.12;88.28;97026.84;4934791;29;20071;-80
2021/12/30 09:26:24;;;;;;;0.30;0.20;;;;;;;12.11;88.21;97030.44;4934345;29;20056;-80
2021/12/30 09:28:53;;;;;;;0.60;0.20;;;;;;;12.11;88.06;97025.22;4934553;29;20067;-80
2021/12/30 09:31:20;;;;;;;1.88;0.30;;;;;;;12.12;88.30;97026.84;4934887;29;20545;-80
2021/12/30 09:33:48;;;;;;;0.70;0.40;;;;;;;12.13;88.25;97033.69;4935470;29;20059;-80
2021/12/30 09:36:15;;;;;;;0.40;0.40;;;;;;;12.14;88.16;97035.34;4938099;29;20498;-80
2021/12/30 09:38:43;;;;;;;0.82;0.30;;;;;;;12.14;88.12;97030.91;4938275;29;20064;-80
2021/12/30 09:41:10;;;;;;;2.45;0.93;;;;;;;12.15;88.00;97045.59;4938382;29;20062;-80
2021/12/30 09:43:38;;;;;;;2.72;0.95;;;;;;;12.18;88.07;97035.78;4938076;29;20063;-80
2021/12/30 09:46:07;;;;;;;0.50;0.50;;;;;;;12.19;87.73;97043.44;4938056;29;20058;-80
2021/12/30 09:48:35;;;;;;;1.05;0.60;;;;;;;12.21;87.83;97048.50;4938337;29;20048;-79
2021/12/30 09:51:02;;;;;;;0.30;0.30;;;;;;;12.23;87.67;97049.94;4938079;29;20051;-80
2021/12/30 09:53:30;;;;;;;0.50;0.38;;;;;;;12.26;87.58;97044.34;4937877;29;20059;-80
2021/12/30 09:55:59;;;;;;;0.45;0.45;;;;;;;12.28;87.36;97052.81;4937433;29;20131;-80
2021/12/30 09:58:27;;;;;;;0.30;0.30;;;;;;;12.31;87.25;97052.47;4938103;29;20521;-80
2021/12/30 10:00:55;;;;;;;1.17;0.63;;;;;;;12.33;87.11;97042.63;4938006;29;20052;-80
2021/12/30 10:03:27;;;;;;;0.28;0.20;;;;;;;12.35;86.91;97040.66;4937676;29;20499;-80
2021/12/30 10:06:05;;;;;;;0.30;0.30;;;;;;;12.38;86.62;97038.66;4937695;29;20051;-80
2021/12/30 10:08:36;;;;;;;0.28;0.20;;;;;;;12.39;86.72;97029.81;4937833;29;20051;-80
2021/12/30 10:11:11;;;;;;;0.47;0.47;;;;;;;12.41;86.67;97031.25;4937844;29;20063;-80
2021/12/30 10:13:43;;;;;;;0.85;0.52;;;;;;;12.44;86.60;97035.28;4937769;29;20048;-80
2021/12/30 10:16:12;;;;;;;0.38;0.30;;;;;;;12.48;86.58;97041.78;4937556;29;20051;-80
2021/12/30 10:18:46;;;;;;;0.63;0.40;;;;;;;12.50;86.75;97042.41;4937604;29;20059;-80
2021/12/30 10:21:16;;;;;;;0.30;0.30;;;;;;;12.56;86.43;97050.34;4937842;29;20043;-80
2021/12/30 10:23:45;;;;;;;0.20;0.20;;;;;;;12.63;86.01;97039.97;4937464;29;20498;-80
2021/12/30 10:26:13;;;;;;;1.85;0.30;;;;;;;12.71;85.93;97044.28;4937168;29;20060;-80
2021/12/30 10:28:43;;;;;;;0.30;0.30;;;;;;;12.78;85.74;97042.56;4937357;29;20059;-80
2021/12/30 10:31:21;;;;;;;0.50;0.40;;;;;;;12.82;85.36;97058.72;4937206;29;20052;-80
2021/12/30 10:33:52;;;;;;;0.25;0.20;;;;;;;12.82;85.29;97058.72;4937056;29;20083;-80
2021/12/30 10:36:22;;;;;;;2.35;0.40;;;;;;;12.82;85.28;97063.94;4937150;29;20055;-80
2021/12/30 10:38:50;;;;;;;0.28;0.28;;;;;;;12.82;85.27;97059.50;4937284;29;20051;-80
2021/12/30 10:41:22;;;;;;;0.43;0.30;;;;;;;12.83;85.16;97063.75;4937175;29;20063;-80
2021/12/30 10:43:53;;;;;;;0.70;0.55;;;;;;;12.83;84.94;97065.56;4936908;29;20051;-80
2021/12/30 10:46:22;;;;;;;0.85;0.35;;;;;;;12.85;85.23;97068.81;4936679;29;20062;-80
2021/12/30 10:48:55;;;;;;;1.40;0.22;;;;;;;12.85;85.01;97069.59;4937246;29;20052;-80
2021/12/30 10:51:24;;;;;;;;;;;;;;;12.86;84.76;97076.47;4937499;29;20067;-80
2021/12/30 10:53:53;;;;;;;0.47;0.38;;;;;;;12.82;84.69;97074.41;4936946;29;19923;-80
2021/12/30 10:56:28;;;;;;;0.20;0.20;;;;;;;12.81;84.95;97083.25;4936689;29;20055;-80
2021/12/30 10:59:08;;;;;;;0.30;0.30;;;;;;;12.81;84.89;97078.00;4937034;29;20051;-80
2021/12/30 11:01:41;;;;;;;1.33;0.40;;;;;;;12.82;84.92;97074.41;4937189;29;20430;-80
2021/12/30 11:04:11;;;;;;;0.30;0.30;;;;;;;12.83;84.76;97068.97;4936688;29;20071;-81
2021/12/30 11:06:40;;;;;;;0.30;0.30;;;;;;;12.89;84.56;97075.28;4936468;29;20070;-80
2021/12/30 11:09:12;;;;;;;0.50;0.50;;;;;;;12.93;84.51;97076.56;4936906;29;20074;-80
2021/12/30 11:11:46;;;;;;;0.90;0.30;;;;;;;12.97;84.45;97072.56;4936930;29;20051;-80
2021/12/30 11:14:17;;;;;;;1.50;0.40;;;;;;;12.97;84.10;97077.81;4937094;29;20054;-80
2021/12/30 11:17:02;;;;;;;0.68;0.40;;;;;;;12.98;84.52;97075.00;4936556;29;20058;-80
2021/12/30 11:19:34;;;;;;;1.38;0.50;;;;;;;12.98;84.50;97071.56;4936811;29;20056;-80
2021/12/30 11:22:05;;;;;;;0.60;0.50;;;;;;;12.98;84.34;97072.38;4936425;29;20052;-80
2021/12/30 11:24:34;;;;;;;0.40;0.40;;;;;;;12.96;84.31;97071.75;4936672;29;20059;-80
2021/12/30 11:27:05;;;;;;;0.30;0.30;;;;;;;12.97;84.36;97073.38;4936259;29;20129;-80
2021/12/30 11:29:35;;;;;;;1.63;0.52;;;;;;;12.99;84.38;97071.38;4936326;29;20490;-80
2021/12/30 11:32:04;;;;;;;0.68;0.20;;;;;;;13.00;84.26;97056.47;4936204;29;20066;-80
2021/12/30 11:34:35;;;;;;;0.50;0.40;;;;;;;13.02;84.15;97059.72;4936719;29;20056;-80
2021/12/30 11:37:03;;;;;;;0.93;0.50;;;;;;;13.08;84.18;97063.41;4936149;29;20052;-80
2021/12/30 11:39:31;;;;;;;0.52;0.52;;;;;;;13.12;83.99;97065.47;4936210;29;20059;-80
2021/12/30 11:42:03;;;;;;;0.65;0.30;;;;;;;13.15;83.85;97065.09;4935757;29;20082;-80